createdAt,value
2018-05-13T00:01:26.676Z,6.43
2018-05-13T00:03:56.591Z,6.80
2018-05-13T00:06:25.469Z,9.57
2018-05-13T00:08:57.506Z,9.50
2018-05-13T00:11:26.336Z,6.97
2018-05-13T00:13:54.871Z,8.50
2018-05-13T00:16:23.141Z,11.70
2018-05-13T00:18:52.045Z,11.30
2018-05-13T00:21:20.325Z,8.03
2018-05-13T00:23:49.260Z,7.90
2018-05-13T00:26:18.428Z,8.77
2018-05-13T00:28:48.336Z,7.23
2018-05-13T00:31:20.624Z,7.73
2018-05-13T00:33:48.912Z,7.23
2018-05-13T00:36:17.187Z,9.20
2018-05-13T00:38:45.956Z,8.43
2018-05-13T00:41:14.040Z,8.53
2018-05-13T00:43:42.829Z,6.83
2018-05-13T00:46:11.008Z,7.30
2018-05-13T00:48:39.771Z,9.50
2018-05-13T00:51:08.544Z,6.87
2018-05-13T00:53:37.365Z,9.00
2018-05-13T00:56:06.622Z,10.73
2018-05-13T00:58:34.906Z,7.07
2018-05-13T01:01:03.178Z,8.10
2018-05-13T01:03:32.099Z,11.97
2018-05-13T01:06:01.008Z,8.50
2018-05-13T01:08:30.388Z,7.33
2018-05-13T01:10:58.604Z,9.07
2018-05-13T01:13:29.284Z,9.30
2018-05-13T01:15:57.585Z,11.70
2018-05-13T01:18:26.811Z,9.90
2018-05-13T01:20:55.768Z,9.27
2018-05-13T01:23:24.208Z,8.50
2018-05-13T01:25:52.315Z,8.63
2018-05-13T01:28:20.644Z,8.43
2018-05-13T01:30:49.418Z,8.43
2018-05-13T01:33:18.271Z,10.07
2018-05-13T01:35:46.624Z,10.93
2018-05-13T01:38:14.758Z,10.73
2018-05-13T01:40:42.840Z,9.50
2018-05-13T01:43:11.674Z,11.50
2018-05-13T01:45:39.853Z,10.33
2018-05-13T01:48:08.131Z,7.23
2018-05-13T01:50:37.102Z,11.20
2018-05-13T01:53:05.435Z,11.23
2018-05-13T01:55:34.542Z,12.20
2018-05-13T01:58:03.127Z,8.70
2018-05-13T02:00:31.993Z,9.33
2018-05-13T02:03:00.325Z,11.00
2018-05-13T02:05:29.500Z,8.90
2018-05-13T02:07:58.324Z,8.60
2018-05-13T02:10:27.170Z,8.43
2018-05-13T02:12:56.844Z,9.23
2018-05-13T02:15:25.714Z,9.10
2018-05-13T02:17:54.195Z,8.30
2018-05-13T02:20:22.432Z,13.83
2018-05-13T02:22:51.268Z,7.40
2018-05-13T02:25:20.173Z,8.10
2018-05-13T02:27:48.492Z,8.70
2018-05-13T02:30:17.632Z,8.60
2018-05-13T02:32:45.816Z,7.97
2018-05-13T02:35:13.951Z,8.80
2018-05-13T02:37:42.250Z,9.03
2018-05-13T02:40:11.063Z,9.10
2018-05-13T02:42:39.555Z,8.63
2018-05-13T02:45:07.630Z,13.20
2018-05-13T02:47:36.389Z,8.90
2018-05-13T02:50:04.812Z,9.50
2018-05-13T02:52:33.684Z,8.07
2018-05-13T02:55:02.863Z,11.93
2018-05-13T02:57:31.081Z,9.97
2018-05-13T02:59:59.916Z,10.00
2018-05-13T03:02:28.715Z,12.17
2018-05-13T03:04:57.492Z,9.00
2018-05-13T03:07:28.325Z,9.77
2018-05-13T03:09:56.619Z,10.10
2018-05-13T03:12:24.789Z,9.47
2018-05-13T03:14:53.060Z,10.20
2018-05-13T03:17:21.361Z,13.13
2018-05-13T03:19:49.716Z,9.40
2018-05-13T03:22:17.993Z,8.70
2018-05-13T03:24:46.788Z,10.70
2018-05-13T03:27:15.044Z,8.03
2018-05-13T03:29:44.043Z,9.33
2018-05-13T03:32:12.343Z,10.00
2018-05-13T03:34:42.041Z,10.03
2018-05-13T03:37:12.007Z,10.23
2018-05-13T03:39:40.101Z,14.67
2018-05-13T03:42:08.403Z,13.30
2018-05-13T03:44:36.888Z,14.60
2018-05-13T03:47:05.832Z,14.47
2018-05-13T03:49:34.019Z,14.53
2018-05-13T03:52:02.229Z,12.83
2018-05-13T03:54:32.144Z,14.03
2018-05-13T03:57:00.408Z,13.83
2018-05-13T03:59:29.796Z,17.47
2018-05-13T04:01:58.663Z,10.73
2018-05-13T04:04:26.919Z,15.47
2018-05-13T04:06:55.335Z,18.03
2018-05-13T04:09:42.487Z,16.40
2018-05-13T04:12:29.124Z,10.00
2018-05-13T04:18:07.671Z,11.00
2018-05-13T04:20:36.520Z,11.47
2018-05-13T04:23:06.252Z,10.60
2018-05-13T04:25:34.495Z,11.83
2018-05-13T04:28:02.795Z,11.97
2018-05-13T04:30:32.374Z,13.43
2018-05-13T04:33:01.184Z,12.00
2018-05-13T04:35:30.397Z,14.23
2018-05-13T04:37:59.653Z,17.60
2018-05-13T04:40:27.967Z,14.73
2018-05-13T04:42:56.847Z,14.43
2018-05-13T04:45:25.223Z,12.30
2018-05-13T04:47:53.679Z,14.67
2018-05-13T04:50:22.530Z,14.73
2018-05-13T04:52:50.884Z,14.07
2018-05-13T04:55:19.664Z,12.60
2018-05-13T04:57:47.951Z,12.50
2018-05-13T05:00:16.206Z,12.60
2018-05-13T05:02:45.009Z,16.13
2018-05-13T05:05:13.257Z,15.90
2018-05-13T05:07:42.278Z,15.60
2018-05-13T05:10:10.581Z,18.00
2018-05-13T05:12:39.333Z,17.80
2018-05-13T05:15:07.816Z,10.97
2018-05-13T05:17:36.608Z,17.23
2018-05-13T05:20:05.403Z,10.13
2018-05-13T05:22:33.651Z,14.83
2018-05-13T05:25:02.754Z,15.67
2018-05-13T05:27:34.087Z,14.03
2018-05-13T05:30:03.187Z,12.57
2018-05-13T05:32:33.099Z,15.00
2018-05-13T05:35:01.390Z,11.90
2018-05-13T05:37:29.697Z,14.20
2018-05-13T05:39:58.757Z,18.57
2018-05-13T05:42:27.996Z,20.07
2018-05-13T05:44:56.282Z,15.80
2018-05-13T05:47:25.960Z,12.70
2018-05-13T05:49:55.096Z,14.10
2018-05-13T05:52:23.886Z,13.80
2018-05-13T05:54:53.076Z,16.70
2018-05-13T05:57:21.400Z,17.00
2018-05-13T05:59:49.691Z,16.27
2018-05-13T06:02:17.890Z,16.50
2018-05-13T06:04:46.099Z,14.07
2018-05-13T06:07:14.211Z,15.00
2018-05-13T06:09:42.417Z,15.90
2018-05-13T06:12:10.616Z,16.03
2018-05-13T06:14:38.677Z,13.73
2018-05-13T06:17:07.575Z,17.60
2018-05-13T06:19:35.757Z,20.47
2018-05-13T06:22:04.053Z,15.37
2018-05-13T06:24:32.212Z,16.73
2018-05-13T06:27:00.980Z,17.70
2018-05-13T06:29:29.075Z,26.67
2018-05-13T06:31:58.010Z,16.60
2018-05-13T06:34:26.817Z,17.70
2018-05-13T06:36:55.124Z,15.20
2018-05-13T06:39:24.012Z,20.63
2018-05-13T06:41:52.569Z,16.40
2018-05-13T06:44:20.778Z,18.43
2018-05-13T06:46:50.731Z,19.00
2018-05-13T06:49:19.088Z,17.60
2018-05-13T06:51:47.903Z,16.30
2018-05-13T06:54:16.215Z,16.27
2018-05-13T06:56:44.435Z,17.33
2018-05-13T06:59:12.610Z,19.00
2018-05-13T07:01:43.102Z,24.73
2018-05-13T07:04:11.872Z,17.53
2018-05-13T07:06:40.213Z,22.57
2018-05-13T07:09:08.547Z,21.27
2018-05-13T07:11:36.840Z,19.30
2018-05-13T07:14:04.946Z,21.73
2018-05-13T07:16:34.908Z,20.67
2018-05-13T07:19:03.187Z,21.53
2018-05-13T07:21:31.480Z,21.50
2018-05-13T07:23:59.827Z,23.77
2018-05-13T07:26:28.947Z,25.03
2018-05-13T07:28:57.193Z,19.70
2018-05-13T07:31:25.424Z,24.30
2018-05-13T07:33:53.491Z,21.10
2018-05-13T07:36:23.048Z,21.77
2018-05-13T07:38:51.821Z,24.80
2018-05-13T07:41:23.619Z,22.37
2018-05-13T07:43:53.135Z,25.70
2018-05-13T07:46:21.447Z,26.00
2018-05-13T07:48:51.428Z,28.87
2018-05-13T07:51:20.486Z,22.10
2018-05-13T07:53:48.804Z,26.60
2018-05-13T07:56:17.628Z,25.47
2018-05-13T07:58:47.248Z,28.63
2018-05-13T08:01:15.855Z,31.67
2018-05-13T08:03:44.118Z,33.93
2018-05-13T08:06:12.351Z,34.27
2018-05-13T08:08:41.300Z,28.30
2018-05-13T08:11:09.665Z,29.67
2018-05-13T08:13:39.372Z,30.73
2018-05-13T08:16:08.165Z,31.40
2018-05-13T08:18:36.637Z,31.80
2018-05-13T08:21:05.372Z,27.10
2018-05-13T08:23:34.244Z,30.97
2018-05-13T08:26:03.916Z,32.87
2018-05-13T08:28:35.723Z,31.07
2018-05-13T08:31:04.599Z,33.63
2018-05-13T08:33:32.905Z,32.97
2018-05-13T08:36:01.776Z,40.10
2018-05-13T08:38:30.092Z,44.00
2018-05-13T08:40:58.279Z,42.73
2018-05-13T08:43:26.699Z,48.80
2018-05-13T08:45:55.461Z,39.30
2018-05-13T08:48:24.287Z,38.30
2018-05-13T08:50:53.345Z,43.13
2018-05-13T08:53:22.487Z,50.27
2018-05-13T08:55:51.332Z,48.60
2018-05-13T08:58:20.165Z,49.43
2018-05-13T09:00:49.475Z,48.33
2018-05-13T09:03:18.099Z,52.80
2018-05-13T09:05:47.019Z,50.13
2018-05-13T09:08:15.321Z,55.93
2018-05-13T09:10:44.160Z,50.93
2018-05-13T09:13:13.003Z,53.30
2018-05-13T09:15:41.656Z,57.90
2018-05-13T09:18:10.422Z,52.40
2018-05-13T09:20:38.582Z,59.47
2018-05-13T09:23:07.583Z,59.23
2018-05-13T09:25:35.700Z,73.20
2018-05-13T09:28:03.975Z,66.30
2018-05-13T09:30:32.747Z,65.63
2018-05-13T09:33:00.891Z,66.43
2018-05-13T09:35:29.755Z,69.63
2018-05-13T09:37:58.008Z,71.60
2018-05-13T09:40:26.256Z,73.63
2018-05-13T09:42:54.520Z,78.40
2018-05-13T09:45:23.264Z,73.53
2018-05-13T09:47:52.672Z,73.77
2018-05-13T09:50:21.427Z,77.93
2018-05-13T09:52:49.671Z,76.90
2018-05-13T09:55:18.400Z,130.70
2018-05-13T09:57:47.972Z,83.10
2018-05-13T10:00:16.770Z,90.33
2018-05-13T10:02:45.323Z,90.20
2018-05-13T10:05:14.558Z,87.07
2018-05-13T10:07:42.863Z,88.13
2018-05-13T10:10:10.941Z,89.10
2018-05-13T10:12:40.611Z,95.40
2018-05-13T10:15:09.395Z,94.37
2018-05-13T10:17:38.064Z,96.93
2018-05-13T10:20:06.237Z,93.53
2018-05-13T10:22:36.007Z,93.67
2018-05-13T10:25:04.870Z,95.90
2018-05-13T10:27:33.692Z,102.13
2018-05-13T10:30:02.068Z,93.80
2018-05-13T10:32:30.268Z,98.33
2018-05-13T10:34:59.916Z,96.87
2018-05-13T10:37:28.746Z,98.73
2018-05-13T10:39:59.792Z,99.83
2018-05-13T10:42:28.686Z,105.13
2018-05-13T10:44:56.959Z,108.20
2018-05-13T10:47:25.032Z,106.03
2018-05-13T10:49:54.804Z,100.70
2018-05-13T10:52:23.697Z,107.30
2018-05-13T10:54:52.545Z,106.60
2018-05-13T10:57:21.269Z,103.07
2018-05-13T10:59:49.392Z,103.00
2018-05-13T11:02:18.296Z,99.07
2018-05-13T11:04:47.882Z,104.90
2018-05-13T11:07:16.136Z,95.50
2018-05-13T11:09:44.392Z,99.37
2018-05-13T11:12:12.640Z,107.67
2018-05-13T11:14:41.215Z,98.80
2018-05-13T11:17:10.056Z,107.13
2018-05-13T11:19:40.327Z,99.03
2018-05-13T11:22:09.300Z,99.40
2018-05-13T11:24:37.464Z,96.67
2018-05-13T11:27:07.433Z,99.03
2018-05-13T11:29:36.244Z,97.67
2018-05-13T11:32:05.169Z,97.17
2018-05-13T11:34:34.938Z,97.97
2018-05-13T11:37:04.153Z,99.93
2018-05-13T11:39:32.256Z,101.53
2018-05-13T11:42:00.427Z,89.60
2018-05-13T11:44:28.960Z,89.07
2018-05-13T11:46:57.156Z,90.57
2018-05-13T11:49:26.121Z,88.27
2018-05-13T11:51:54.535Z,89.40
2018-05-13T11:54:22.764Z,86.77
2018-05-13T11:56:51.880Z,83.27
2018-05-13T11:59:20.642Z,80.20
2018-05-13T12:01:48.793Z,78.20
2018-05-13T12:04:17.641Z,77.90
2018-05-13T12:06:46.748Z,81.33
2018-05-13T12:09:15.638Z,74.40
2018-05-13T12:11:43.999Z,75.80
2018-05-13T12:14:12.239Z,77.53
2018-05-13T12:16:41.247Z,81.30
2018-05-13T12:19:09.383Z,90.73
2018-05-13T12:21:38.272Z,78.70
2018-05-13T12:24:06.509Z,86.63
2018-05-13T12:26:34.596Z,78.53
2018-05-13T12:29:02.986Z,76.97
2018-05-13T12:31:34.663Z,80.63
2018-05-13T12:34:02.746Z,79.93
2018-05-13T12:36:31.815Z,68.33
2018-05-13T12:38:59.936Z,68.17
2018-05-13T12:41:28.241Z,70.50
2018-05-13T12:43:56.633Z,69.73
2018-05-13T12:46:25.385Z,69.50
2018-05-13T12:48:53.492Z,71.13
2018-05-13T12:51:22.151Z,72.63
2018-05-13T12:53:54.281Z,61.17
2018-05-13T12:56:24.052Z,67.80
2018-05-13T12:58:52.756Z,71.70
2018-05-13T13:01:21.102Z,91.03
2018-05-13T13:03:49.251Z,69.93
2018-05-13T13:06:17.439Z,80.10
2018-05-13T13:08:46.228Z,66.30
2018-05-13T13:11:14.420Z,75.00
2018-05-13T13:13:43.204Z,71.43
2018-05-13T13:16:11.543Z,72.00
2018-05-13T13:18:41.228Z,74.03
2018-05-13T13:21:10.254Z,77.20
2018-05-13T13:23:39.102Z,73.63
2018-05-13T13:26:07.989Z,75.90
2018-05-13T13:28:36.765Z,72.20
2018-05-13T13:31:05.559Z,75.43
2018-05-13T13:33:33.907Z,67.57
2018-05-13T13:36:04.485Z,71.63
2018-05-13T13:38:32.565Z,68.07
2018-05-13T13:41:00.908Z,69.83
2018-05-13T13:43:29.268Z,67.90
2018-05-13T13:45:57.575Z,71.47
2018-05-13T13:48:25.772Z,72.97
2018-05-13T13:50:54.160Z,78.30
2018-05-13T13:53:22.964Z,68.57
2018-05-13T13:55:51.165Z,75.27
2018-05-13T13:58:19.958Z,74.03
2018-05-13T14:00:48.343Z,71.93
2018-05-13T14:03:16.634Z,72.07
2018-05-13T14:05:44.836Z,71.23
2018-05-13T14:08:13.995Z,74.90
2018-05-13T14:10:42.296Z,73.43
2018-05-13T14:13:10.626Z,71.50
2018-05-13T14:15:39.489Z,74.93
2018-05-13T14:18:08.562Z,76.27
2018-05-13T14:20:37.055Z,71.10
2018-05-13T14:23:05.344Z,67.80
2018-05-13T14:25:36.502Z,70.10
2018-05-13T14:28:04.811Z,70.80
2018-05-13T14:30:34.309Z,72.87
2018-05-13T14:33:02.643Z,77.73
2018-05-13T14:35:31.676Z,79.83
2018-05-13T14:38:00.606Z,76.20
2018-05-13T14:40:30.775Z,74.60
2018-05-13T14:42:59.103Z,70.80
2018-05-13T14:45:27.937Z,73.40
2018-05-13T14:47:56.689Z,81.70
2018-05-13T14:50:27.323Z,91.50
2018-05-13T14:52:55.972Z,97.93
2018-05-13T14:55:24.852Z,102.33
2018-05-13T14:57:53.676Z,102.43
2018-05-13T15:00:22.998Z,94.83
2018-05-13T15:02:51.139Z,93.03
2018-05-13T15:05:19.876Z,98.50
2018-05-13T15:07:48.632Z,100.90
2018-05-13T15:10:16.992Z,102.97
2018-05-13T15:12:45.321Z,102.13
2018-05-13T15:15:13.531Z,100.07
2018-05-13T15:17:41.618Z,105.40
2018-05-13T15:20:10.040Z,110.73
2018-05-13T15:22:39.995Z,128.67
2018-05-13T15:25:08.105Z,123.67
2018-05-13T15:27:37.246Z,122.23
2018-05-13T15:30:06.189Z,123.17
2018-05-13T15:32:35.045Z,106.60
2018-05-13T15:35:04.344Z,121.57
2018-05-13T15:37:32.471Z,91.93
2018-05-13T15:40:01.408Z,97.97
2018-05-13T15:42:29.722Z,104.47
2018-05-13T15:44:57.856Z,120.03
2018-05-13T15:47:26.249Z,92.03
2018-05-13T15:49:55.884Z,94.00
2018-05-13T15:52:24.150Z,87.33
2018-05-13T15:54:52.310Z,90.70
2018-05-13T15:57:20.366Z,94.97
2018-05-13T15:59:48.717Z,97.57
2018-05-13T16:02:17.756Z,87.57
2018-05-13T16:04:46.237Z,86.00
2018-05-13T16:07:20.346Z,98.70
2018-05-13T16:09:48.612Z,105.70
2018-05-13T16:12:16.858Z,110.90
2018-05-13T16:14:46.800Z,122.00
2018-05-13T16:17:15.111Z,110.83
2018-05-13T16:19:43.377Z,111.17
2018-05-13T16:22:12.168Z,122.27
2018-05-13T16:24:40.263Z,107.10
2018-05-13T16:27:08.568Z,108.27
2018-05-13T16:29:37.661Z,105.50
2018-05-13T16:32:05.857Z,102.13
2018-05-13T16:34:34.186Z,79.57
2018-05-13T16:37:02.345Z,85.90
2018-05-13T16:39:31.254Z,77.50
2018-05-13T16:41:59.825Z,78.77
2018-05-13T16:44:28.180Z,73.43
2018-05-13T16:46:56.379Z,79.27
2018-05-13T16:49:24.956Z,77.30
2018-05-13T16:51:55.659Z,79.57
2018-05-13T16:54:23.972Z,71.47
2018-05-13T16:56:52.835Z,77.10
2018-05-13T16:59:21.936Z,79.90
2018-05-13T17:01:50.365Z,84.10
2018-05-13T17:04:19.178Z,81.57
2018-05-13T17:06:47.285Z,85.10
2018-05-13T17:09:16.555Z,88.93
2018-05-13T17:11:44.736Z,93.47
2018-05-13T17:14:12.958Z,89.60
2018-05-13T17:16:41.821Z,94.93
2018-05-13T17:19:09.938Z,99.17
2018-05-13T17:21:38.205Z,81.23
2018-05-13T17:24:07.284Z,89.33
2018-05-13T17:26:35.628Z,85.40
2018-05-13T17:29:04.117Z,89.77
2018-05-13T17:31:32.668Z,81.40
2018-05-13T17:34:03.034Z,84.40
2018-05-13T17:36:31.395Z,90.13
2018-05-13T17:38:59.509Z,87.23
2018-05-13T17:41:27.860Z,86.20
2018-05-13T17:43:58.494Z,89.80
2018-05-13T17:46:26.899Z,88.70
2018-05-13T17:48:59.137Z,91.93
2018-05-13T17:51:30.729Z,82.33
2018-05-13T17:54:01.741Z,85.43
2018-05-13T17:56:33.553Z,80.73
2018-05-13T17:59:03.326Z,77.20
2018-05-13T18:01:31.643Z,76.83
2018-05-13T18:04:02.216Z,78.23
2018-05-13T18:06:31.158Z,78.23
2018-05-13T18:09:04.648Z,76.63
2018-05-13T18:11:37.414Z,85.77
2018-05-13T18:14:05.652Z,79.27
2018-05-13T18:16:33.764Z,81.00
2018-05-13T18:19:03.233Z,86.97
2018-05-13T18:21:32.569Z,83.27
2018-05-13T18:24:06.693Z,83.37
2018-05-13T18:26:36.957Z,90.70
2018-05-13T18:29:06.688Z,97.77
2018-05-13T18:31:35.266Z,89.47
2018-05-13T18:34:04.197Z,85.93
2018-05-13T18:36:33.418Z,98.47
2018-05-13T18:39:04.702Z,88.60
2018-05-13T18:41:36.212Z,96.93
2018-05-13T18:44:07.113Z,92.33
2018-05-13T18:46:35.801Z,103.70
2018-05-13T18:49:04.133Z,99.53
2018-05-13T18:51:33.505Z,105.80
2018-05-13T18:54:01.969Z,102.03
2018-05-13T18:56:34.016Z,107.30
2018-05-13T18:59:02.189Z,101.00
2018-05-13T19:01:32.029Z,108.33
2018-05-13T19:04:00.990Z,104.87
2018-05-13T19:06:35.411Z,119.20
2018-05-13T19:09:03.541Z,123.43
2018-05-13T19:11:35.211Z,120.03
2018-05-13T19:14:04.554Z,122.77
2018-05-13T19:16:35.832Z,119.33
2018-05-13T19:19:08.544Z,121.50
2018-05-13T19:21:36.968Z,124.87
2018-05-13T19:24:09.263Z,124.90
2018-05-13T19:26:39.256Z,121.90
2018-05-13T19:29:08.986Z,125.40
2018-05-13T19:31:38.208Z,126.40
2018-05-13T19:34:08.468Z,125.63
2018-05-13T19:36:37.297Z,125.27
2018-05-13T19:39:05.803Z,122.83
2018-05-13T19:41:34.944Z,139.20
2018-05-13T19:44:05.868Z,131.83
2018-05-13T19:46:39.144Z,121.70
2018-05-13T19:49:11.288Z,139.77
2018-05-13T19:51:45.880Z,120.47
2018-05-13T19:54:14.231Z,130.47
2018-05-13T19:56:43.061Z,119.60
2018-05-13T19:59:12.043Z,122.43
2018-05-13T20:01:40.876Z,118.00
2018-05-13T20:04:10.512Z,118.10
2018-05-13T20:06:38.996Z,118.20
2018-05-13T20:09:07.196Z,113.77
2018-05-13T20:11:35.600Z,122.93
2018-05-13T20:14:04.717Z,113.00
2018-05-13T20:16:34.284Z,112.47
2018-05-13T20:19:02.544Z,122.17
2018-05-13T20:21:30.707Z,120.80
2018-05-13T20:23:58.818Z,130.37
2018-05-13T20:26:27.368Z,127.07
2018-05-13T20:28:58.754Z,127.83
2018-05-13T20:31:27.547Z,120.87
2018-05-13T20:33:56.412Z,126.23
2018-05-13T20:36:24.660Z,122.07
2018-05-13T20:38:53.063Z,127.27
2018-05-13T20:41:21.131Z,134.97
2018-05-13T20:43:49.452Z,116.43
2018-05-13T20:46:18.220Z,122.00
2018-05-13T20:48:47.069Z,126.17
2018-05-13T20:51:15.443Z,112.67
2018-05-13T20:53:43.876Z,115.67
2018-05-13T20:56:12.213Z,125.83
2018-05-13T20:58:41.020Z,129.20
2018-05-13T21:01:10.233Z,124.57
2018-05-13T21:03:39.091Z,114.47
2018-05-13T21:06:07.345Z,102.70
2018-05-13T21:08:35.648Z,118.33
2018-05-13T21:11:04.780Z,117.00
2018-05-13T21:13:33.648Z,117.23
2018-05-13T21:16:01.856Z,139.80
2018-05-13T21:18:30.032Z,117.17
2018-05-13T21:20:59.081Z,118.00
2018-05-13T21:23:27.955Z,119.57
2018-05-13T21:25:56.753Z,130.50
2018-05-13T21:28:25.540Z,115.30
2018-05-13T21:30:54.045Z,123.33
2018-05-13T21:33:22.365Z,124.83
2018-05-13T21:35:50.671Z,121.87
2018-05-13T21:38:19.683Z,132.03
2018-05-13T21:40:47.845Z,124.37
2018-05-13T21:43:16.179Z,137.17
2018-05-13T21:45:45.053Z,127.73
2018-05-13T21:48:14.105Z,132.30
2018-05-13T21:50:42.424Z,131.40
2018-05-13T21:53:10.533Z,125.67
2018-05-13T21:55:40.364Z,128.30
2018-05-13T21:58:08.796Z,139.23
2018-05-13T22:00:37.668Z,126.57
2018-05-13T22:03:06.536Z,142.93
2018-05-13T22:05:35.338Z,137.90
2018-05-13T22:08:03.648Z,146.63
2018-05-13T22:10:31.928Z,134.20
2018-05-13T22:13:00.962Z,148.40
2018-05-13T22:15:29.970Z,130.10
2018-05-13T22:17:59.486Z,135.37
2018-05-13T22:20:27.681Z,128.13
2018-05-13T22:22:56.544Z,142.10
2018-05-13T22:25:25.422Z,137.47
2018-05-13T22:27:53.835Z,137.90
2018-05-13T22:30:22.761Z,133.10
2018-05-13T22:32:52.316Z,126.00
2018-05-13T22:35:21.340Z,150.03
2018-05-13T22:37:50.225Z,141.20
2018-05-13T22:40:19.096Z,144.93
2018-05-13T22:42:47.444Z,144.50
2018-05-13T22:45:15.728Z,150.43
2018-05-13T22:47:44.729Z,139.80
2018-05-13T22:50:12.978Z,149.90
2018-05-13T22:52:41.919Z,145.80
2018-05-13T22:55:11.109Z,139.93
2018-05-13T22:57:39.401Z,142.17
2018-05-13T23:00:08.616Z,149.97
2018-05-13T23:02:36.873Z,146.37
2018-05-13T23:05:05.953Z,154.47
2018-05-13T23:07:34.727Z,156.87
2018-05-13T23:10:03.155Z,157.83
2018-05-13T23:12:31.752Z,165.67
2018-05-13T23:15:01.015Z,163.83
2018-05-13T23:17:29.212Z,173.93
2018-05-13T23:19:59.316Z,168.07
2018-05-13T23:22:35.093Z,186.30
2018-05-13T23:25:03.518Z,175.33
2018-05-13T23:27:33.211Z,170.03
2018-05-13T23:30:01.517Z,194.07
2018-05-13T23:32:29.773Z,181.37
2018-05-13T23:34:58.353Z,191.33
2018-05-13T23:37:26.648Z,183.00
2018-05-13T23:39:54.801Z,211.73
2018-05-13T23:42:24.026Z,205.37
2018-05-13T23:44:54.237Z,201.57
2018-05-13T23:47:25.177Z,216.67
2018-05-13T23:49:53.536Z,334.23
2018-05-13T23:52:21.931Z,190.50
2018-05-13T23:54:51.965Z,207.90
2018-05-13T23:57:20.593Z,187.67
2018-05-13T23:59:55.073Z,187.20
